createdAt,value
2023-05-01T00:02:17.428Z,70.08
2023-05-01T00:04:44.012Z,69.85
2023-05-01T00:07:10.464Z,70.16
2023-05-01T00:09:36.914Z,70.00
2023-05-01T00:12:03.875Z,70.22
2023-05-01T00:14:30.414Z,70.48
2023-05-01T00:16:57.007Z,70.25
2023-05-01T00:19:23.548Z,70.52
2023-05-01T00:21:52.414Z,70.76
2023-05-01T00:24:18.906Z,70.49
2023-05-01T00:26:45.555Z,70.63
2023-05-01T00:29:12.255Z,70.94
2023-05-01T00:31:38.892Z,70.79
2023-05-01T00:34:05.431Z,71.71
2023-05-01T00:36:32.045Z,71.58
2023-05-01T00:38:58.525Z,72.93
2023-05-01T00:41:24.928Z,71.93
2023-05-01T00:43:51.349Z,71.42
2023-05-01T00:46:19.053Z,72.05
2023-05-01T00:48:45.613Z,71.11
2023-05-01T00:51:12.895Z,71.60
2023-05-01T00:53:43.450Z,71.55
2023-05-01T00:56:11.586Z,71.37
2023-05-01T00:58:38.629Z,71.39
2023-05-01T01:01:05.346Z,71.15
2023-05-01T01:03:31.849Z,71.46
2023-05-01T01:06:09.487Z,71.97
2023-05-01T01:08:43.443Z,72.08
2023-05-01T01:11:21.728Z,72.16
2023-05-01T01:14:07.961Z,71.64
2023-05-01T01:16:45.523Z,71.87
2023-05-01T01:19:33.145Z,71.12
2023-05-01T01:22:07.568Z,71.36
2023-05-01T01:24:53.527Z,70.85
2023-05-01T01:27:35.016Z,70.86
2023-05-01T01:30:07.679Z,71.79
2023-05-01T01:33:04.955Z,71.84
2023-05-01T01:35:33.880Z,71.03
2023-05-01T01:38:09.671Z,70.23
2023-05-01T01:40:49.347Z,69.43
2023-05-01T01:43:18.235Z,68.76
2023-05-01T01:45:48.189Z,68.08
2023-05-01T01:48:22.298Z,67.79
2023-05-01T01:50:49.134Z,67.48
2023-05-01T01:53:18.364Z,66.88
2023-05-01T01:55:46.719Z,66.62
2023-05-01T01:58:16.055Z,66.52
2023-05-01T02:00:45.432Z,66.58
2023-05-01T02:03:13.481Z,66.60
2023-05-01T02:05:42.011Z,66.36
2023-05-01T02:08:09.662Z,66.35
2023-05-01T02:10:37.150Z,65.89
2023-05-01T02:13:04.241Z,66.04
2023-05-01T02:15:32.624Z,65.32
2023-05-01T02:18:02.529Z,65.00
2023-05-01T02:20:30.300Z,65.06
2023-05-01T02:22:58.466Z,65.90
2023-05-01T02:25:29.469Z,65.72
2023-05-01T02:28:00.130Z,65.56
2023-05-01T02:30:26.505Z,65.55
2023-05-01T02:32:53.077Z,65.57
2023-05-01T02:35:19.568Z,65.23
2023-05-01T02:37:46.298Z,65.48
2023-05-01T02:40:14.985Z,65.29
2023-05-01T02:42:44.912Z,65.57
2023-05-01T02:45:23.586Z,65.83
2023-05-01T02:47:53.778Z,65.14
2023-05-01T02:50:22.189Z,64.75
2023-05-01T02:52:49.822Z,64.82
2023-05-01T02:55:17.489Z,64.43
2023-05-01T02:57:43.898Z,64.58
2023-05-01T03:00:14.077Z,64.63
2023-05-01T03:02:41.014Z,64.84
2023-05-01T03:05:07.844Z,65.03
2023-05-01T03:07:35.320Z,64.97
2023-05-01T03:10:03.942Z,65.05
2023-05-01T03:12:30.875Z,64.62
2023-05-01T03:14:57.360Z,64.50
2023-05-01T03:17:24.029Z,64.99
2023-05-01T03:19:51.476Z,64.87
2023-05-01T03:22:18.169Z,65.11
2023-05-01T03:24:44.612Z,64.92
2023-05-01T03:27:11.676Z,65.56
2023-05-01T03:29:38.231Z,65.25
2023-05-01T03:32:05.565Z,65.04
2023-05-01T03:34:32.279Z,64.81
2023-05-01T03:36:58.714Z,65.36
2023-05-01T03:39:25.265Z,65.19
2023-05-01T03:41:51.650Z,64.98
2023-05-01T03:44:18.056Z,64.94
2023-05-01T03:46:44.717Z,64.99
2023-05-01T03:49:11.248Z,64.41
2023-05-01T03:51:37.669Z,64.82
2023-05-01T03:54:04.107Z,65.16
2023-05-01T03:56:35.461Z,65.99
2023-05-01T03:59:02.042Z,65.13
2023-05-01T04:01:28.462Z,65.67
2023-05-01T04:03:55.197Z,65.95
2023-05-01T04:06:22.754Z,65.84
2023-05-01T04:08:49.284Z,66.51
2023-05-01T04:11:15.717Z,66.38
2023-05-01T04:13:42.329Z,66.57
2023-05-01T04:16:08.836Z,66.82
2023-05-01T04:18:35.455Z,66.89
2023-05-01T04:21:02.001Z,67.32
2023-05-01T04:23:28.387Z,67.09
2023-05-01T04:25:54.760Z,66.92
2023-05-01T04:28:21.302Z,66.81
2023-05-01T04:30:47.806Z,67.11
2023-05-01T04:33:14.223Z,67.02
2023-05-01T04:35:41.401Z,67.41
2023-05-01T04:38:10.420Z,67.04
2023-05-01T04:40:36.832Z,67.06
2023-05-01T04:43:03.394Z,67.22
2023-05-01T04:45:29.849Z,67.11
2023-05-01T04:54:11.005Z,67.55
2023-05-01T04:56:37.424Z,67.42
2023-05-01T04:59:03.872Z,67.55
2023-05-01T05:01:30.615Z,67.39
2023-05-01T05:03:57.251Z,67.01
2023-05-01T05:06:23.815Z,67.13
2023-05-01T05:08:52.062Z,67.02
2023-05-01T05:11:19.111Z,67.06
2023-05-01T05:13:46.118Z,67.20
2023-05-01T05:16:12.807Z,66.57
2023-05-01T05:18:39.261Z,66.38
2023-05-01T05:21:10.480Z,65.94
2023-05-01T05:23:37.111Z,65.88
2023-05-01T05:26:03.682Z,65.61
2023-05-01T05:28:30.634Z,65.58
2023-05-01T05:30:57.506Z,65.18
2023-05-01T05:33:27.146Z,64.82
2023-05-01T05:35:53.732Z,64.57
2023-05-01T05:38:20.511Z,64.34
2023-05-01T05:40:46.920Z,64.31
2023-05-01T05:43:13.705Z,64.44
2023-05-01T05:45:43.128Z,64.51
2023-05-01T05:48:09.855Z,64.50
2023-05-01T05:50:36.476Z,64.32
2023-05-01T05:53:02.963Z,64.18
2023-05-01T05:55:29.432Z,64.09
2023-05-01T05:57:55.904Z,63.58
2023-05-01T06:00:22.391Z,64.03
2023-05-01T06:02:49.052Z,64.26
2023-05-01T06:05:15.518Z,64.02
2023-05-01T06:07:42.329Z,63.70
2023-05-01T06:10:09.174Z,64.36
2023-05-01T06:12:37.707Z,64.22
2023-05-01T06:15:08.872Z,64.54
2023-05-01T06:17:36.078Z,64.74
2023-05-01T06:20:05.716Z,64.99
2023-05-01T06:22:32.180Z,65.32
2023-05-01T06:24:58.633Z,65.53
2023-05-01T06:27:25.051Z,65.37
2023-05-01T06:29:51.638Z,65.65
2023-05-01T06:32:18.099Z,65.42
2023-05-01T06:34:44.651Z,65.36
2023-05-01T06:37:11.049Z,66.07
2023-05-01T06:39:37.484Z,65.99
2023-05-01T06:42:08.072Z,65.74
2023-05-01T06:44:34.459Z,65.98
2023-05-01T06:47:01.875Z,65.81
2023-05-01T06:49:28.525Z,65.59
2023-05-01T06:51:55.107Z,65.58
2023-05-01T06:54:21.504Z,65.44
2023-05-01T06:56:47.989Z,65.39
2023-05-01T06:59:14.408Z,64.90
2023-05-01T07:01:40.859Z,64.66
2023-05-01T07:04:07.362Z,64.16
2023-05-01T07:06:34.012Z,64.48
2023-05-01T07:09:00.571Z,63.85
2023-05-01T07:11:27.030Z,64.65
2023-05-01T07:13:56.705Z,64.36
2023-05-01T07:16:23.236Z,64.06
2023-05-01T07:18:49.737Z,64.18
2023-05-01T07:21:16.156Z,64.09
2023-05-01T07:23:42.600Z,64.94
2023-05-01T07:26:09.111Z,64.73
2023-05-01T07:28:35.527Z,63.13
2023-05-01T07:31:01.930Z,63.51
2023-05-01T07:33:28.377Z,63.00
2023-05-01T07:35:55.370Z,62.84
2023-05-01T07:38:21.792Z,61.57
2023-05-01T07:40:48.286Z,61.96
2023-05-01T07:43:14.707Z,60.67
2023-05-01T07:45:42.813Z,59.97
2023-05-01T07:48:09.676Z,60.76
2023-05-01T07:50:36.363Z,60.03
2023-05-01T07:53:02.810Z,59.79
2023-05-01T07:55:29.191Z,59.14
2023-05-01T07:57:56.226Z,59.41
2023-05-01T08:00:22.777Z,58.85
2023-05-01T08:02:49.310Z,60.00
2023-05-01T08:05:15.950Z,57.24
2023-05-01T08:07:42.332Z,58.25
2023-05-01T08:10:09.362Z,57.79
2023-05-01T08:12:35.840Z,57.03
2023-05-01T08:15:02.268Z,55.78
2023-05-01T08:17:28.686Z,57.07
2023-05-01T08:19:56.723Z,57.23
2023-05-01T08:22:23.906Z,54.13
2023-05-01T08:24:50.902Z,55.50
2023-05-01T08:27:17.837Z,55.42
2023-05-01T08:29:44.661Z,55.45
2023-05-01T08:32:11.236Z,54.32
2023-05-01T08:34:37.970Z,55.70
2023-05-01T08:37:04.796Z,53.14
2023-05-01T08:39:31.213Z,55.04
2023-05-01T08:41:58.741Z,50.33
2023-05-01T08:44:28.824Z,51.34
2023-05-01T08:47:18.476Z,51.65
2023-05-01T08:49:45.938Z,50.38
2023-05-01T08:52:14.107Z,51.20
2023-05-01T08:54:44.567Z,50.28
2023-05-01T08:57:12.257Z,49.32
2023-05-01T08:59:40.227Z,48.27
2023-05-01T09:02:10.228Z,49.16
2023-05-01T09:04:41.667Z,48.36
2023-05-01T09:07:09.745Z,50.83
2023-05-01T09:09:36.658Z,47.70
2023-05-01T09:12:21.142Z,41.78
2023-05-01T09:14:47.719Z,45.10
2023-05-01T09:17:15.414Z,44.91
2023-05-01T09:19:42.074Z,46.83
2023-05-01T09:22:09.756Z,41.51
2023-05-01T09:24:36.173Z,43.31
2023-05-01T09:27:02.710Z,42.62
2023-05-01T09:29:37.368Z,41.84
2023-05-01T09:32:24.677Z,39.64
2023-05-01T09:34:52.510Z,43.22
2023-05-01T09:37:30.029Z,41.25
2023-05-01T09:40:09.353Z,40.61
2023-05-01T09:42:40.587Z,43.46
2023-05-01T09:45:16.447Z,39.34
2023-05-01T09:47:46.206Z,42.30
2023-05-01T09:50:29.403Z,38.89
2023-05-01T09:52:55.974Z,41.91
2023-05-01T09:55:25.383Z,42.17
2023-05-01T09:57:52.631Z,43.97
2023-05-01T10:00:21.756Z,43.50
2023-05-01T10:02:49.250Z,41.79
2023-05-01T10:05:16.234Z,43.68
2023-05-01T10:08:00.250Z,41.00
2023-05-01T10:10:26.976Z,42.54
2023-05-01T10:12:53.773Z,44.18
2023-05-01T10:15:26.235Z,46.48
2023-05-01T10:17:54.023Z,45.90
2023-05-01T10:20:21.065Z,44.01
2023-05-01T10:22:48.664Z,44.57
2023-05-01T10:25:17.640Z,42.52
2023-05-01T10:27:44.186Z,44.09
2023-05-01T10:30:11.201Z,44.42
2023-05-01T10:32:40.967Z,45.43
2023-05-01T10:35:12.874Z,45.75
2023-05-01T10:37:56.396Z,45.02
2023-05-01T10:40:41.229Z,44.10
2023-05-01T10:43:30.036Z,43.82
2023-05-01T10:46:08.976Z,42.56
2023-05-01T10:48:38.340Z,44.00
2023-05-01T10:51:11.120Z,43.19
2023-05-01T10:53:39.326Z,42.52
2023-05-01T10:56:06.171Z,44.11
2023-05-01T10:58:52.813Z,42.29
2023-05-01T11:01:29.186Z,41.59
2023-05-01T11:03:57.075Z,41.09
2023-05-01T11:06:24.250Z,43.51
2023-05-01T11:08:51.000Z,41.53
2023-05-01T11:11:23.396Z,41.54
2023-05-01T11:13:58.141Z,42.23
2023-05-01T11:16:39.975Z,41.34
2023-05-01T11:19:07.870Z,41.93
2023-05-01T11:21:39.183Z,40.48
2023-05-01T11:24:06.777Z,42.69
2023-05-01T11:26:38.233Z,42.66
2023-05-01T11:29:05.913Z,43.22
2023-05-01T11:31:32.708Z,41.52
2023-05-01T11:34:00.256Z,42.75
2023-05-01T11:36:28.300Z,43.14
2023-05-01T11:38:56.726Z,38.89
2023-05-01T11:41:24.435Z,38.24
2023-05-01T11:43:56.371Z,38.63
2023-05-01T11:46:32.053Z,38.80
2023-05-01T11:49:01.060Z,39.33
2023-05-01T11:51:28.518Z,40.98
2023-05-01T11:54:02.805Z,39.79
2023-05-01T11:56:30.276Z,40.59
2023-05-01T11:58:58.478Z,39.03
2023-05-01T12:01:39.893Z,40.90
2023-05-01T12:04:10.046Z,41.53
2023-05-01T12:06:45.600Z,39.89
2023-05-01T12:09:15.269Z,39.37
2023-05-01T12:11:42.842Z,37.79
2023-05-01T12:14:10.364Z,38.42
2023-05-01T12:16:40.279Z,37.86
2023-05-01T12:19:07.478Z,38.73
2023-05-01T12:21:35.152Z,39.38
2023-05-01T12:24:14.992Z,38.66
2023-05-01T12:26:42.177Z,39.67
2023-05-01T12:29:09.566Z,39.59
2023-05-01T12:31:37.148Z,39.12
2023-05-01T12:34:07.919Z,37.37
2023-05-01T12:36:36.681Z,37.20
2023-05-01T12:39:13.944Z,38.39
2023-05-01T12:41:49.030Z,37.26
2023-05-01T12:44:25.841Z,38.70
2023-05-01T12:47:09.398Z,40.99
2023-05-01T12:49:37.534Z,41.74
2023-05-01T12:52:06.482Z,42.42
2023-05-01T12:54:34.870Z,42.49
2023-05-01T12:57:11.288Z,42.66
2023-05-01T12:59:39.671Z,43.70
2023-05-01T13:02:08.628Z,43.29
2023-05-01T13:04:35.435Z,43.88
2023-05-01T13:07:02.599Z,43.63
2023-05-01T13:09:32.774Z,43.42
2023-05-01T13:12:02.196Z,44.43
2023-05-01T13:14:30.576Z,45.19
2023-05-01T13:16:57.182Z,45.02
2023-05-01T13:19:31.470Z,46.03
2023-05-01T13:22:00.011Z,45.65
2023-05-01T13:24:38.065Z,43.86
2023-05-01T13:27:06.857Z,45.04
2023-05-01T13:29:33.736Z,45.24
2023-05-01T13:32:01.134Z,45.34
2023-05-01T13:34:32.900Z,45.79
2023-05-01T13:37:01.277Z,45.01
2023-05-01T13:39:28.405Z,44.18
2023-05-01T13:41:54.974Z,43.32
2023-05-01T13:44:22.348Z,43.25
2023-05-01T13:46:49.791Z,42.40
2023-05-01T13:49:20.723Z,42.21
2023-05-01T13:51:48.742Z,43.55
2023-05-01T13:54:15.481Z,43.03
2023-05-01T13:56:42.224Z,43.77
2023-05-01T13:59:09.663Z,39.85
2023-05-01T14:01:42.416Z,38.87
2023-05-01T14:04:11.169Z,42.06
2023-05-01T14:06:43.280Z,46.23
2023-05-01T14:09:10.005Z,47.43
2023-05-01T14:11:47.662Z,47.68
2023-05-01T14:14:18.410Z,48.91
2023-05-01T14:16:52.089Z,49.31
2023-05-01T14:19:18.743Z,58.26
2023-05-01T14:21:45.664Z,63.95
2023-05-01T14:24:13.240Z,66.48
2023-05-01T14:26:43.171Z,69.94
2023-05-01T14:29:29.208Z,69.42
2023-05-01T14:31:57.085Z,66.96
2023-05-01T14:34:26.311Z,67.70
2023-05-01T14:36:55.514Z,65.34
2023-05-01T14:39:22.369Z,73.01
2023-05-01T14:41:48.865Z,74.03
2023-05-01T14:44:17.922Z,75.48
2023-05-01T14:46:51.076Z,73.99
2023-05-01T14:49:20.053Z,74.72
2023-05-01T14:51:46.809Z,74.02
2023-05-01T14:54:14.978Z,74.77
2023-05-01T14:56:47.054Z,76.76
2023-05-01T14:59:13.899Z,77.21
2023-05-01T15:01:40.791Z,76.25
2023-05-01T15:04:07.725Z,76.73
2023-05-01T15:06:34.652Z,76.50
2023-05-01T15:09:01.358Z,75.29
2023-05-01T15:11:28.139Z,71.38
2023-05-01T15:13:54.804Z,76.30
2023-05-01T15:16:21.271Z,75.45
2023-05-01T15:18:47.825Z,75.33
2023-05-01T15:21:14.437Z,77.07
2023-05-01T15:23:45.081Z,78.07
2023-05-01T15:26:11.706Z,76.89
2023-05-01T15:28:38.210Z,77.27
2023-05-01T15:31:04.678Z,76.57
2023-05-01T15:33:31.456Z,78.13
2023-05-01T15:35:57.863Z,76.83
2023-05-01T15:38:25.164Z,77.81
2023-05-01T15:40:52.041Z,78.02
2023-05-01T15:43:18.488Z,77.37
2023-05-01T15:45:44.967Z,76.31
2023-05-01T15:48:11.971Z,76.95
2023-05-01T15:50:38.604Z,74.11
2023-05-01T15:53:05.061Z,74.64
2023-05-01T15:55:31.619Z,79.26
2023-05-01T15:57:58.030Z,80.62
2023-05-01T16:00:25.331Z,78.33
2023-05-01T16:02:52.035Z,79.07
2023-05-01T16:05:21.245Z,78.74
2023-05-01T16:07:53.396Z,78.90
2023-05-01T16:10:19.865Z,74.95
2023-05-01T16:12:46.545Z,78.17
2023-05-01T16:15:14.538Z,76.90
2023-05-01T16:17:45.640Z,79.17
2023-05-01T16:20:14.075Z,80.06
2023-05-01T16:22:41.875Z,81.50
2023-05-01T16:25:09.752Z,82.54
2023-05-01T16:27:41.134Z,84.39
2023-05-01T16:30:08.963Z,84.54
2023-05-01T16:32:35.788Z,86.41
2023-05-01T16:35:05.312Z,87.43
2023-05-01T16:37:34.120Z,87.61
2023-05-01T16:40:01.349Z,86.79
2023-05-01T16:42:28.258Z,86.20
2023-05-01T16:44:56.487Z,87.06
2023-05-01T16:47:23.158Z,88.64
2023-05-01T16:49:49.657Z,88.79
2023-05-01T16:52:16.491Z,84.33
2023-05-01T16:54:42.947Z,87.58
2023-05-01T16:57:09.561Z,86.64
2023-05-01T16:59:37.516Z,87.43
2023-05-01T17:02:05.653Z,84.18
2023-05-01T17:04:32.250Z,87.75
2023-05-01T17:06:58.848Z,85.92
2023-05-01T17:09:25.372Z,87.87
2023-05-01T17:11:52.195Z,86.28
2023-05-01T17:14:18.985Z,86.80
2023-05-01T17:16:46.749Z,89.81
2023-05-01T17:19:14.348Z,87.94
2023-05-01T17:21:41.264Z,86.76
2023-05-01T17:26:34.199Z,87.19
2023-05-01T17:29:02.757Z,87.68
2023-05-01T17:31:29.505Z,88.43
2023-05-01T17:33:56.092Z,88.23
2023-05-01T17:36:23.854Z,89.62
2023-05-01T17:38:50.400Z,89.75
2023-05-01T17:41:17.135Z,90.23
2023-05-01T17:43:44.780Z,88.99
2023-05-01T17:46:11.668Z,90.16
2023-05-01T17:48:38.070Z,88.32
2023-05-01T17:51:04.503Z,87.46
2023-05-01T17:53:30.895Z,86.92
2023-05-01T17:55:58.255Z,88.60
2023-05-01T17:58:24.621Z,88.20
2023-05-01T18:00:51.259Z,86.56
2023-05-01T18:03:17.902Z,86.43
2023-05-01T18:05:45.002Z,87.41
2023-05-01T18:08:11.495Z,86.82
2023-05-01T18:10:38.334Z,86.96
2023-05-01T18:13:04.746Z,86.44
2023-05-01T18:15:31.144Z,86.25
2023-05-01T18:17:57.651Z,88.04
2023-05-01T18:20:24.217Z,87.22
2023-05-01T18:22:51.093Z,87.37
2023-05-01T18:25:17.803Z,87.34
2023-05-01T18:27:45.325Z,87.38
2023-05-01T18:30:13.229Z,86.80
2023-05-01T18:32:46.709Z,86.71
2023-05-01T18:35:15.123Z,87.60
2023-05-01T18:37:42.478Z,88.21
2023-05-01T18:40:09.772Z,88.63
2023-05-01T18:42:36.545Z,88.81
2023-05-01T18:45:03.973Z,88.76
2023-05-01T18:47:32.301Z,87.42
2023-05-01T18:49:59.385Z,85.81
2023-05-01T18:52:26.121Z,85.07
2023-05-01T18:57:33.435Z,84.71
2023-05-01T19:00:02.718Z,84.86
2023-05-01T19:05:10.568Z,84.23
2023-05-01T19:07:37.174Z,83.54
2023-05-01T19:10:03.803Z,83.33
2023-05-01T19:12:30.339Z,83.74
2023-05-01T19:14:56.767Z,83.54
2023-05-01T19:17:23.300Z,83.60
2023-05-01T19:19:49.796Z,85.88
2023-05-01T19:22:16.671Z,85.16
2023-05-01T19:24:43.070Z,84.67
2023-05-01T19:27:09.494Z,83.97
2023-05-01T19:29:35.982Z,88.46
2023-05-01T19:32:02.809Z,87.33
2023-05-01T19:34:29.245Z,85.68
2023-05-01T19:37:00.239Z,85.82
2023-05-01T19:39:26.893Z,84.76
2023-05-01T19:41:53.958Z,84.45
2023-05-01T19:44:21.051Z,84.46
2023-05-01T19:46:47.493Z,84.52
2023-05-01T19:49:13.938Z,84.13
2023-05-01T19:51:40.537Z,83.99
2023-05-01T19:54:06.968Z,84.20
2023-05-01T19:56:34.629Z,84.33
2023-05-01T19:59:01.283Z,84.38
2023-05-01T20:01:29.843Z,85.76
2023-05-01T20:03:56.458Z,85.06
2023-05-01T20:08:49.496Z,86.28
2023-05-01T20:11:15.887Z,85.96
2023-05-01T20:13:42.365Z,85.83
2023-05-01T20:16:09.899Z,85.85
2023-05-01T20:18:36.542Z,89.05
2023-05-01T20:21:02.955Z,86.75
2023-05-01T20:23:29.373Z,86.95
2023-05-01T20:25:55.822Z,86.67
2023-05-01T20:28:27.453Z,86.28
2023-05-01T20:30:54.185Z,89.21
2023-05-01T20:33:20.968Z,86.96
2023-05-01T20:35:47.751Z,88.45
2023-05-01T20:38:14.259Z,86.40
2023-05-01T20:40:40.743Z,89.18
2023-05-01T20:43:07.347Z,88.90
2023-05-01T20:45:33.890Z,88.38
2023-05-01T20:48:01.643Z,89.24
2023-05-01T20:50:28.136Z,89.80
2023-05-01T20:52:56.191Z,87.47
2023-05-01T20:55:23.828Z,86.61
2023-05-01T20:57:50.367Z,87.60
2023-05-01T21:00:17.208Z,87.74
2023-05-01T21:02:44.000Z,86.60
2023-05-01T21:05:11.018Z,85.86
2023-05-01T21:07:38.805Z,85.78
2023-05-01T21:10:06.764Z,85.88
2023-05-01T21:12:33.239Z,85.27
2023-05-01T21:14:59.791Z,86.56
2023-05-01T21:17:26.774Z,85.39
2023-05-01T21:19:53.891Z,85.37
2023-05-01T21:22:22.149Z,85.03
2023-05-01T21:24:54.217Z,87.28
2023-05-01T21:27:21.432Z,88.44
2023-05-01T21:29:54.781Z,87.03
2023-05-01T21:32:34.139Z,88.54
2023-05-01T21:35:01.424Z,86.55
2023-05-01T21:37:29.066Z,88.93
2023-05-01T21:39:59.080Z,88.18
2023-05-01T21:42:35.874Z,87.49
2023-05-01T21:45:13.180Z,87.28
2023-05-01T21:47:42.149Z,88.36
2023-05-01T21:50:12.101Z,87.79
2023-05-01T21:52:39.391Z,88.31
2023-05-01T21:55:11.175Z,88.05
2023-05-01T21:57:39.460Z,87.91
2023-05-01T22:00:09.713Z,87.19
2023-05-01T22:02:40.929Z,87.42
2023-05-01T22:05:08.844Z,88.50
2023-05-01T22:07:40.027Z,87.26
2023-05-01T22:10:15.651Z,88.16
2023-05-01T22:12:42.187Z,87.74
2023-05-01T22:15:10.515Z,87.02
2023-05-01T22:17:38.470Z,86.85
2023-05-01T22:20:07.149Z,87.53
2023-05-01T22:22:34.555Z,87.97
2023-05-01T22:25:01.007Z,86.62
2023-05-01T22:27:27.479Z,86.64
2023-05-01T22:29:53.924Z,88.91
2023-05-01T22:32:20.836Z,88.59
2023-05-01T22:34:47.525Z,88.77
2023-05-01T22:37:13.936Z,88.78
2023-05-01T22:39:40.322Z,87.27
2023-05-01T22:42:06.822Z,87.75
2023-05-01T22:44:33.308Z,87.12
2023-05-01T22:46:59.865Z,87.86
2023-05-01T22:49:28.524Z,88.17
2023-05-01T22:51:55.753Z,87.65
2023-05-01T22:54:22.272Z,87.08
2023-05-01T22:56:49.928Z,86.71
2023-05-01T22:59:17.074Z,87.40
2023-05-01T23:01:44.451Z,87.71
2023-05-01T23:04:11.681Z,86.88
2023-05-01T23:06:38.569Z,86.71
2023-05-01T23:09:04.997Z,87.26
2023-05-01T23:11:32.877Z,85.86
2023-05-01T23:14:00.451Z,85.14
2023-05-01T23:16:27.554Z,85.40
2023-05-01T23:18:55.700Z,84.98
2023-05-01T23:21:22.278Z,86.02
2023-05-01T23:23:48.727Z,85.59
2023-05-01T23:26:25.502Z,85.64
2023-05-01T23:28:53.115Z,86.66
2023-05-01T23:31:26.871Z,85.77
2023-05-01T23:33:55.347Z,85.39
2023-05-01T23:36:22.234Z,85.58
2023-05-01T23:38:48.955Z,85.60
2023-05-01T23:41:16.376Z,85.19
2023-05-01T23:43:43.694Z,85.90
2023-05-01T23:46:10.278Z,88.00
2023-05-01T23:48:37.666Z,88.05
2023-05-01T23:51:04.578Z,86.53
2023-05-01T23:53:31.330Z,86.47
2023-05-01T23:55:57.867Z,87.41
2023-05-01T23:58:24.431Z,86.99
